Latest Weather Observations for East Sale

IDV60801

Issued at 11:02 am EDT Tuesday 23 December 2014 (issued every 30 minutes, with the page automatically refreshed every 10 minutes)

About weather observations | Map of weather stations | Latest weather observations for VIC | Other Formats
Station Details ID: 085072 Name: EAST SALE AIRPORT Lat: -38.12 Lon: 147.13 Height: 4.6 m
Data from the previous 72 hours. | See also: Recent months at East Sale
Date/Time
EDT
Temp
°C
App
Temp
°C
Dew
Point
Rel
Hum
%
Delta-T
°C
Wind Press
QNH
hPa
Press
MSL
hPa
Rain
since 9 am
mm
Dir
 
Spd
km/h
Gust
km/h
Spd
kts
Gust
kts
23/11:00am 26.6 23.0 15.2 49 6.9 NW 28 37 15 20 1007.5 1007.5 0.0
23/10:30am 26.5 24.1 15.3 50 6.8 NNW 22 41 12 22 1007.6 1007.6 0.0
23/10:29am 26.3 24.1 14.8 49 6.9 NNW 20 41 11 22 1007.6 1007.6 0.0
23/10:00am 24.1 24.6 17.5 66 4.1 N 11 15 6 8 1007.8 1007.8 0.0
23/09:30am 22.7 23.8 18.1 75 2.9 NNE 9 15 5 8 1008.0 1008.0 0.0
23/08:30am 20.8 21.6 18.2 85 1.6 NNE 11 15 6 8 1008.3 1008.3 1.0
23/08:00am 19.8 19.6 17.7 88 1.3 NNE 15 20 8 11 1008.1 1008.1 1.0
23/07:30am 19.7 20.0 17.1 85 1.6 N 11 15 6 8 1008.1 1008.1 0.8
23/07:00am 19.5 20.1 16.9 85 1.6 N 9 11 5 6 1008.1 1008.1 0.6
23/06:30am 19.4 19.6 16.7 84 1.6 NW 11 15 6 8 1008.1 1008.1 0.4
23/06:00am 19.8 20.4 16.7 82 1.9 NNW 9 13 5 7 1007.5 1007.5 0.2
23/05:30am 20.0 18.8 16.2 79 2.3 NE 17 24 9 13 1006.8 1006.8 0.0
23/05:00am 20.0 18.7 15.8 77 2.5 NE 17 20 9 11 1006.6 1006.6 0.0
23/04:30am 19.6 18.9 16.4 82 1.9 NE 15 17 8 9 1006.5 1006.5 0.0
23/04:00am 19.8 20.3 16.5 81 2.0 ENE 9 13 5 7 1006.5 1006.5 0.0
23/03:30am 20.4 20.3 16.1 76 2.6 NE 11 17 6 9 1006.7 1006.7 0.0
23/03:00am 21.4 21.4 15.2 68 3.7 NNE 9 11 5 6 1007.0 1007.0 0.0
23/02:30am 21.2 21.4 15.7 71 3.3 NNE 9 17 5 9 1007.4 1007.4 0.0
23/02:00am 20.2 21.1 17.6 85 1.6 NE 9 13 5 7 1007.6 1007.6 0.0
23/01:30am 20.1 21.5 17.8 86 1.4 NNW 7 9 4 5 1008.1 1008.1 0.0
23/01:00am 20.1 20.4 18.0 88 1.3 N 13 15 7 8 1007.9 1007.9 0.0
23/12:30am 19.7 20.4 17.9 89 1.1 NNE 11 15 6 8 1008.1 1008.1 0.0
23/12:00am 19.4 20.2 18.1 92 0.8 NNW 11 13 6 7 1008.5 1008.5 0.0
 
Date/Time
EDT
Temp
°C
App
Temp
°C
Dew
Point
Rel
Hum
%
Delta-T
°C
Wind Press
QNH
hPa
Press
MSL
hPa
Rain
since 9 am
mm
Dir
 
Spd
km/h
Gust
km/h
Spd
kts
Gust
kts
22/11:30pm 19.2 19.6 18.1 93 0.7 NNW 13 17 7 9 1008.7 1008.7 0.0
22/11:00pm 19.1 20.6 18.1 94 0.6 N 7 11 4 6 1009.0 1009.0 0.0
22/10:30pm 19.2 20.3 18.1 93 0.7 ESE 9 9 5 5 1008.5 1008.5 0.0
22/10:00pm 19.3 21.4 18.0 92 0.8 SSE 4 6 2 3 1009.0 1009.0 0.0
22/09:30pm 19.2 20.6 17.9 92 0.8 SE 7 9 4 5 1009.0 1009.0 0.0
22/09:00pm 19.2 20.2 17.7 91 0.9 ENE 9 11 5 6 1009.3 1009.3 0.0
22/08:30pm 19.4 20.4 17.8 90 1.0 S 9 13 5 7 1009.0 1009.0 0.0
22/08:00pm 19.7 19.9 17.7 88 1.2 SSW 13 24 7 13 1009.1 1009.1 0.0
22/07:30pm 19.9 19.0 17.8 88 1.3 S 19 24 10 13 1008.9 1008.9 0.0
22/07:00pm 20.6 20.9 17.8 84 1.7 S 13 17 7 9 1009.4 1009.4 0.0
22/06:30pm 20.9 20.2 17.3 80 2.2 SSW 17 24 9 13 1009.8 1009.8 0.0
22/06:00pm 21.5 21.4 17.8 79 2.3 SSE 15 20 8 11 1009.5 1009.5 0.0
22/05:30pm 22.4 21.5 16.8 70 3.4 SSE 17 20 9 11 1009.6 1009.6 0.0
22/05:00pm 23.4 22.5 16.9 67 4.0 SSE 17 24 9 13 1009.5 1009.5 0.0
22/04:30pm 23.7 22.1 16.5 64 4.4 SSE 20 30 11 16 1009.6 1009.6 0.0
22/04:00pm 24.5 21.8 16.7 61 4.8 SE 26 32 14 17 1009.6 1009.6 0.0
22/03:30pm 25.5 23.6 17.7 62 4.9 SE 24 32 13 17 1010.0 1010.0 0.0
22/03:00pm 26.5 24.4 17.2 56 5.8 SE 24 33 13 18 1010.1 1010.1 0.0
22/02:30pm 27.3 25.6 17.2 54 6.3 SE 22 32 12 17 1010.6 1010.6 0.0
22/02:00pm 27.7 25.6 16.2 49 7.1 SE 22 30 12 16 1010.9 1010.9 0.0
22/01:30pm 27.5 26.0 16.3 50 6.9 SE 19 28 10 15 1011.2 1011.2 0.0
22/01:00pm 27.2 25.7 16.4 51 6.7 SE 19 26 10 14 1011.6 1011.6 0.0
22/12:30pm 27.8 27.0 17.1 52 6.7 SE 17 24 9 13 1011.8 1011.8 0.0
22/12:00pm 27.0 26.6 16.1 51 6.7 SSE 13 20 7 11 1012.4 1012.4 0.0
22/11:30am 26.3 26.6 17.9 60 5.3 SE 13 19 7 10 1012.6 1012.6 0.0
22/11:00am 25.6 25.9 17.8 62 4.9 SSE 13 17 7 9 1012.8 1012.8 0.0
22/10:30am 25.1 25.6 17.4 62 4.8 SSE 11 24 6 13 1013.0 1013.0 0.0
22/10:00am 23.6 23.3 17.3 67 3.9 SSE 15 20 8 11 1013.3 1013.3 0.0
22/09:30am 22.0 22.3 18.0 78 2.5 SSE 13 17 7 9 1013.4 1013.4 0.0
22/09:00am 20.8 21.2 17.2 80 2.2 SSE 11 17 6 9 1013.6 1013.6 0.0
22/08:30am 20.0 19.9 17.0 83 1.8 S 13 17 7 9 1013.6 1013.6 0.0
22/08:00am 19.4 20.0 16.7 84 1.6 S 9 13 5 7 1013.4 1013.4 0.0
22/07:30am 18.0 18.6 15.8 87 1.3 WSW 7 9 4 5 1013.5 1013.5 0.0
22/07:00am 16.3 16.8 14.9 91 0.8 NW 6 7 3 4 1013.1 1013.1 0.0
22/06:30am 14.6 14.5 13.9 96 0.4 NNW 7 9 4 5 1012.9 1012.9 0.0
22/06:00am 13.9 13.8 13.2 96 0.4 NNW 6 7 3 4 1012.7 1012.7 0.0
22/05:30am 14.6 14.7 13.9 96 0.4 WNW 6 7 3 4 1012.8 1012.8 0.0
22/05:00am 14.4 14.1 13.3 93 0.6 NW 7 9 4 5 1012.7 1012.7 0.0
22/04:30am 15.8 15.7 14.0 89 1.0 NW 7 9 4 5 1012.6 1012.6 0.0
22/04:00am 15.5 16.8 14.1 91 0.8 CALM 0 0 0 0 1012.5 1012.5 0.0
22/03:30am 16.5 16.7 14.6 88 1.1 SW 7 7 4 4 1012.8 1012.8 0.0
22/03:00am 16.5 16.8 14.6 88 1.1 W 6 7 3 4 1012.9 1012.9 0.0
22/02:30am 16.9 16.7 14.6 86 1.3 WNW 9 9 5 5 1013.0 1013.0 0.0
22/02:00am 16.8 16.6 14.7 87 1.2 NW 9 11 5 6 1013.2 1013.2 0.0
22/01:30am 18.3 19.6 15.2 82 1.8 SSE 2 6 1 3 1013.3 1013.3 0.0
22/01:00am 19.1 18.8 15.4 79 2.2 SE 11 15 6 8 1013.2 1013.2 0.0
22/12:30am 19.4 18.2 15.0 75 2.6 ESE 15 17 8 9 1013.2 1013.2 0.0
22/12:00am 19.6 19.0 15.7 78 2.3 SE 13 15 7 8 1013.5 1013.5 0.0
 
Date/Time
EDT
Temp
°C
App
Temp
°C
Dew
Point
Rel
Hum
%
Delta-T
°C
Wind Press
QNH
hPa
Press
MSL
hPa
Rain
since 9 am
mm
Dir
 
Spd
km/h
Gust
km/h
Spd
kts
Gust
kts
21/11:30pm 19.1 18.8 15.4 79 2.2 SE 11 13 6 7 1013.4 1013.4 0.0
21/11:00pm 19.7 18.9 16.0 79 2.2 SE 15 17 8 9 1013.6 1013.6 0.0
21/10:30pm 18.8 18.4 16.1 84 1.6 ESE 13 17 7 9 1013.4 1013.4 0.0
21/10:00pm 19.2 18.9 16.5 84 1.6 E 13 17 7 9 1013.3 1013.3 0.0
21/09:30pm 19.3 19.1 16.6 84 1.6 E 13 15 7 8 1013.2 1013.2 0.0
21/09:00pm 19.6 19.4 16.8 84 1.7 ESE 13 15 7 8 1013.1 1013.1 0.0
21/08:30pm 20.5 20.4 16.9 80 2.2 ESE 13 17 7 9 1013.0 1013.0 0.0
21/08:00pm 21.4 20.9 17.0 76 2.7 E 15 17 8 9 1012.9 1012.9 0.0
21/07:30pm 21.9 20.8 16.3 70 3.4 E 17 20 9 11 1012.9 1012.9 0.0
21/07:00pm 22.3 20.0 16.7 70 3.4 E 24 30 13 16 1012.6 1012.6 0.0
21/06:30pm 23.0 20.6 15.5 62 4.5 E 22 26 12 14 1012.7 1012.7 0.0
21/06:00pm 24.1 21.1 14.7 55 5.6 E 24 30 13 16 1013.0 1013.0 0.0
21/05:30pm 23.4 20.5 15.2 60 4.9 E 24 28 13 15 1012.9 1012.9 0.0
21/05:00pm 24.1 21.3 15.3 58 5.3 E 24 30 13 16 1013.1 1013.1 0.0
21/04:30pm 24.2 20.7 14.6 55 5.7 E 26 32 14 17 1013.4 1013.4 0.0
21/04:00pm 24.2 21.5 14.6 55 5.7 E 22 28 12 15 1013.5 1013.5 0.0
21/03:30pm 24.3 21.0 13.9 52 6.1 E 24 30 13 16 1013.7 1013.7 0.0
21/03:00pm 23.7 20.1 14.2 55 5.6 E 26 32 14 17 1014.0 1014.0 0.0
21/02:30pm 24.7 22.0 14.6 53 6.0 E 22 26 12 14 1014.3 1014.3 0.0
21/02:00pm 24.0 21.5 14.2 54 5.8 E 20 26 11 14 1014.5 1014.5 0.0
21/01:30pm 23.5 20.7 13.1 52 6.0 E 20 26 11 14 1014.9 1014.9 0.0
21/01:00pm 23.9 21.4 14.2 54 5.7 E 20 28 11 15 1015.1 1015.1 0.0
21/12:30pm 23.2 20.0 13.1 53 5.8 E 22 28 12 15 1015.1 1015.1 0.0
21/12:00pm 23.5 20.9 13.1 52 6.0 E 19 24 10 13 1015.3 1015.3 0.0
21/11:30am 22.3 20.0 13.1 56 5.3 E 17 24 9 13 1015.3 1015.3 0.0
21/11:00am 21.5 19.8 13.7 61 4.5 E 15 20 8 11 1015.6 1015.6 0.0
21/10:30am 21.2 19.8 13.4 61 4.5 E 13 19 7 10 1015.9 1015.9 0.0
21/10:00am 20.4 19.1 13.6 65 3.9 ENE 13 20 7 11 1016.0 1016.0 0.0
21/09:30am 19.2 16.8 12.8 66 3.6 ENE 17 24 9 13 1016.3 1016.3 0.0
21/09:00am 18.9 16.0 12.4 66 3.6 ENE 19 26 10 14 1016.5 1016.5 0.0
21/08:30am 17.9 15.8 12.5 70 3.0 E 15 20 8 11 1016.8 1016.8 0.0
21/08:00am 16.7 17.4 13.5 81 1.8 SE 2 7 1 4 1016.7 1016.7 0.0
21/07:30am 15.3 15.0 12.8 85 1.4 NE 6 7 3 4 1016.6 1016.6 0.0
21/07:00am 14.0 14.8 12.5 91 0.8 CALM 0 0 0 0 1016.4 1016.4 0.0
21/06:30am 12.4 12.9 11.6 95 0.4 CALM 0 0 0 0 1016.0 1016.0 0.0
21/06:00am 11.9 11.1 11.1 95 0.4 NE 6 7 3 4 1015.6 1015.6 0.0
21/05:30am 11.6 10.8 11.0 96 0.3 NE 6 7 3 4 1015.6 1015.6 0.0
21/05:00am 12.4 12.1 11.3 93 0.6 NE 4 6 2 3 1015.7 1015.7 0.0
21/04:30am 12.8 11.7 11.9 94 0.5 E 9 9 5 5 1015.6 1015.6 0.0
21/04:00am 13.5 13.0 12.6 94 0.5 ENE 7 9 4 5 1015.9 1015.9 0.0
21/03:35am 12.8 11.7 12.1 95 0.4 E 9 11 5 6 1016.0 1016.0 0.0
21/03:30am 12.6 11.5 11.8 95 0.4 E 9 11 5 6 1015.9 1015.9 0.0
21/03:29am 12.5 11.3 11.7 95 0.4 E 9 11 5 6 1015.9 1015.9 0.0
21/03:00am 13.0 11.9 11.9 93 0.6 E 9 11 5 6 1016.2 1016.2 0.0
21/02:30am 12.8 12.1 11.5 92 0.7 ENE 6 9 3 5 1016.6 1016.6 0.0
21/02:00am 12.5 11.6 11.4 93 0.6 E 7 9 4 5 1016.9 1016.9 0.0
21/01:30am 12.7 11.9 11.6 93 0.6 ENE 7 7 4 4 1017.2 1017.2 0.0
21/01:00am 12.6 11.4 11.7 94 0.5 ENE 9 9 5 5 1017.2 1017.2 0.0
21/12:30am 12.7 11.2 11.8 94 0.5 NE 11 13 6 7 1017.5 1017.5 0.0
21/12:00am 12.5 10.5 11.6 94 0.5 NNE 13 15 7 8 1017.7 1017.7 0.0
 
Date/Time
EDT
Temp
°C
App
Temp
°C
Dew
Point
Rel
Hum
%
Delta-T
°C
Wind Press
QNH
hPa
Press
MSL
hPa
Rain
since 9 am
mm
Dir
 
Spd
km/h
Gust
km/h
Spd
kts
Gust
kts
20/11:30pm 13.3 11.8 12.0 92 0.7 NNE 11 13 6 7 1017.9 1017.9 0.0
20/11:00pm 14.2 12.5 12.5 89 0.9 NNE 13 15 7 8 1017.8 1017.8 0.0
20/10:30pm 14.8 13.3 13.0 89 1.0 NNE 13 15 7 8 1018.1 1018.1 0.0
20/10:00pm 14.5 13.0 13.0 91 0.8 NE 13 17 7 9 1018.1 1018.1 0.0
20/09:30pm 15.3 13.8 13.1 87 1.2 NE 13 19 7 10 1018.1 1018.1 0.0
20/09:00pm 15.7 14.2 13.0 84 1.5 NE 13 17 7 9 1017.7 1017.7 0.0
20/08:30pm 17.0 15.5 13.1 78 2.2 ENE 13 17 7 9 1017.5 1017.5 0.0
20/08:00pm 19.1 16.5 13.3 69 3.3 NE 19 20 10 11 1017.1 1017.1 0.0
20/07:30pm 20.2 17.3 13.0 63 4.1 ENE 20 22 11 12 1016.7 1016.7 0.0
20/07:00pm 20.8 18.5 13.1 61 4.4 ENE 17 22 9 12 1016.4 1016.4 0.0
20/06:30pm 21.1 18.9 13.2 60 4.5 E 17 20 9 11 1016.1 1016.1 0.0
20/06:00pm 21.3 18.3 13.7 62 4.4 E 22 28 12 15 1016.0 1016.0 0.0
20/05:30pm 21.6 18.4 13.0 58 4.9 E 22 28 12 15 1015.8 1015.8 0.0
20/05:00pm 22.0 19.2 13.1 57 5.1 E 20 28 11 15 1016.0 1016.0 0.0
20/04:30pm 21.6 18.6 12.6 56 5.1 E 20 33 11 18 1016.0 1016.0 0.0
20/04:00pm 23.6 21.2 11.3 46 6.9 WSW 15 20 8 11 1016.3 1016.3 0.0
20/03:30pm 22.8 21.8 11.1 47 6.5 SSE 7 13 4 7 1016.6 1016.6 0.0
20/03:00pm 21.9 19.6 10.6 48 6.2 S 13 20 7 11 1016.9 1016.9 0.0
20/02:30pm 21.8 19.3 10.9 50 6.0 WSW 15 28 8 15 1017.2 1017.2 0.0
20/02:00pm 21.5 18.7 11.2 52 5.7 WSW 17 26 9 14 1017.5 1017.5 0.0
20/01:30pm 20.3 17.4 11.0 55 5.1 SW 17 26 9 14 1017.7 1017.7 0.0
20/01:00pm 20.3 16.9 11.4 56 4.9 WSW 20 35 11 19 1018.0 1018.0 0.0
20/12:30pm 19.8 16.0 11.0 57 4.8 WSW 22 35 12 19 1018.3 1018.3 0.0
20/12:00pm 18.7 14.5 9.9 56 4.7 W 22 33 12 18 1018.5 1018.5 0.0
20/11:30am 18.0 13.4 9.6 58 4.4 WSW 24 32 13 17 1018.8 1018.8 0.0

Other Formats:

Comma delimited format used in spreadsheet applications
http://www.bom.gov.au/fwo/IDV60801/IDV60801.94907.axf

JavaScript Object Notation format (JSON) in row-major order
http://www.bom.gov.au/fwo/IDV60801/IDV60801.94907.json